createdAt,value
2022-08-18T00:00:22.949Z,8.18
2022-08-18T00:01:25.507Z,8.25
2022-08-18T00:02:30.778Z,8.23
2022-08-18T00:03:57.462Z,8.20
2022-08-18T00:04:57.231Z,8.98
2022-08-18T00:05:59.121Z,8.00
2022-08-18T00:07:01.088Z,8.90
2022-08-18T00:08:03.027Z,8.30
2022-08-18T00:09:07.567Z,8.48
2022-08-18T00:10:18.694Z,8.35
2022-08-18T00:11:21.283Z,8.95
2022-08-18T00:12:30.355Z,8.65
2022-08-18T00:13:32.297Z,8.82
2022-08-18T00:14:34.326Z,8.35
2022-08-18T00:15:41.522Z,8.68
2022-08-18T00:16:53.878Z,8.77
2022-08-18T00:17:55.859Z,8.57
2022-08-18T00:18:58.022Z,8.65
2022-08-18T00:20:00.323Z,8.63
2022-08-18T00:21:02.420Z,8.45
2022-08-18T00:22:04.342Z,8.13
2022-08-18T00:23:06.426Z,8.70
2022-08-18T00:24:09.533Z,8.45
2022-08-18T00:25:13.569Z,8.55
2022-08-18T00:26:15.868Z,8.75
2022-08-18T00:27:21.598Z,8.90
2022-08-18T00:28:24.443Z,8.50
2022-08-18T00:29:26.463Z,8.50
2022-08-18T00:30:28.579Z,8.25
2022-08-18T00:31:31.685Z,8.05
2022-08-18T00:32:36.966Z,8.90
2022-08-18T00:33:38.723Z,8.57
2022-08-18T00:34:40.851Z,8.77
2022-08-18T00:35:42.908Z,8.43
2022-08-18T00:36:44.800Z,9.02
2022-08-18T00:37:48.758Z,9.00
2022-08-18T00:38:50.638Z,9.20
2022-08-18T00:39:53.882Z,8.95
2022-08-18T00:40:56.889Z,8.65
2022-08-18T00:41:58.780Z,8.50
2022-08-18T00:43:03.445Z,8.50
2022-08-18T00:44:05.349Z,9.30
2022-08-18T00:45:08.036Z,8.38
2022-08-18T00:46:15.501Z,8.68
2022-08-18T00:47:17.407Z,8.60
2022-08-18T00:48:39.314Z,9.05
2022-08-18T00:49:42.955Z,8.60
2022-08-18T00:50:49.966Z,9.10
2022-08-18T00:51:52.345Z,8.65
2022-08-18T00:53:05.065Z,9.57
2022-08-18T00:54:25.925Z,7.90
2022-08-18T00:55:30.559Z,8.32
2022-08-18T00:56:39.945Z,8.77
2022-08-18T00:57:43.340Z,9.27
2022-08-18T00:58:53.513Z,9.20
2022-08-18T01:00:03.635Z,9.88
2022-08-18T01:01:08.671Z,9.27
2022-08-18T01:02:33.298Z,9.40
2022-08-18T01:03:40.170Z,9.13
2022-08-18T01:04:58.375Z,9.20
2022-08-18T01:06:15.248Z,9.95
2022-08-18T01:07:45.314Z,9.52
2022-08-18T01:08:47.619Z,9.70
2022-08-18T01:09:52.146Z,9.73
2022-08-18T01:10:55.410Z,9.60
2022-08-18T01:11:57.557Z,9.13
2022-08-18T01:12:59.737Z,10.00
2022-08-18T01:14:01.873Z,9.32
2022-08-18T01:15:04.536Z,10.18
2022-08-18T01:16:25.735Z,9.20
2022-08-18T01:17:46.270Z,8.95
2022-08-18T01:19:06.846Z,9.23
2022-08-18T01:20:32.286Z,9.82
2022-08-18T01:21:52.217Z,9.35
2022-08-18T01:23:11.945Z,9.02
2022-08-18T01:24:18.531Z,9.38
2022-08-18T01:25:41.798Z,9.80
2022-08-18T01:26:49.893Z,9.48
2022-08-18T01:27:52.559Z,9.45
2022-08-18T01:28:54.532Z,9.93
2022-08-18T01:29:57.946Z,9.60
2022-08-18T01:31:01.290Z,9.98
2022-08-18T01:33:12.507Z,10.07
2022-08-18T01:34:14.826Z,10.25
2022-08-18T01:35:18.649Z,9.15
2022-08-18T01:36:22.061Z,10.07
2022-08-18T01:37:25.513Z,9.48
2022-08-18T01:38:27.531Z,9.10
2022-08-18T01:41:11.078Z,9.52
2022-08-18T01:41:22.913Z,9.80
2022-08-18T01:42:17.446Z,9.50
2022-08-18T01:43:19.444Z,10.32
2022-08-18T01:44:21.325Z,10.13
2022-08-18T01:45:23.261Z,10.02
2022-08-18T01:46:25.433Z,9.70
2022-08-18T01:47:28.847Z,9.43
2022-08-18T01:48:36.995Z,9.52
2022-08-18T01:49:43.554Z,9.88
2022-08-18T01:50:45.896Z,10.05
2022-08-18T01:51:49.098Z,10.15
2022-08-18T01:52:53.629Z,9.98
2022-08-18T01:53:55.999Z,10.35
2022-08-18T01:55:01.278Z,10.23
2022-08-18T01:56:05.417Z,10.10
2022-08-18T01:57:07.182Z,10.00
2022-08-18T01:58:08.965Z,9.68
2022-08-18T01:59:14.483Z,9.52
2022-08-18T02:00:18.589Z,9.60
2022-08-18T02:01:22.178Z,9.48
2022-08-18T02:02:27.922Z,9.80
2022-08-18T02:03:37.240Z,10.02
2022-08-18T02:04:39.570Z,10.18
2022-08-18T02:05:46.491Z,9.82
2022-08-18T02:06:50.225Z,10.40
2022-08-18T02:07:54.094Z,9.82
2022-08-18T02:08:56.344Z,10.18
2022-08-18T02:09:59.343Z,10.07
2022-08-18T02:11:01.746Z,9.75
2022-08-18T02:12:05.725Z,10.80
2022-08-18T02:13:08.367Z,10.13
2022-08-18T02:14:10.243Z,10.18
2022-08-18T02:15:13.164Z,10.55
2022-08-18T02:16:15.214Z,10.30
2022-08-18T02:17:16.947Z,10.43
2022-08-18T02:18:26.006Z,10.77
2022-08-18T02:19:47.468Z,10.63
2022-08-18T02:20:49.674Z,9.70
2022-08-18T02:22:00.146Z,9.93
2022-08-18T02:23:02.820Z,10.25
2022-08-18T02:24:05.114Z,9.90
2022-08-18T02:25:07.726Z,10.40
2022-08-18T02:26:12.664Z,9.60
2022-08-18T02:27:15.832Z,10.05
2022-08-18T02:28:17.755Z,9.50
2022-08-18T02:29:19.651Z,9.32
2022-08-18T02:30:21.608Z,10.32
2022-08-18T02:31:25.418Z,9.48
2022-08-18T02:32:29.416Z,9.30
2022-08-18T02:33:31.542Z,9.25
2022-08-18T02:34:33.563Z,9.88
2022-08-18T02:35:36.554Z,10.00
2022-08-18T02:36:38.486Z,9.38
2022-08-18T02:37:42.440Z,10.65
2022-08-18T02:38:44.479Z,10.48
2022-08-18T02:39:57.634Z,10.13
2022-08-18T02:41:01.667Z,10.45
2022-08-18T02:42:05.780Z,9.95
2022-08-18T02:43:09.488Z,10.38
2022-08-18T02:44:13.105Z,10.63
2022-08-18T02:45:15.197Z,10.00
2022-08-18T02:46:17.135Z,10.07
2022-08-18T02:47:22.370Z,9.98
2022-08-18T02:48:30.247Z,9.57
2022-08-18T02:49:32.086Z,9.73
2022-08-18T02:50:34.322Z,9.95
2022-08-18T02:51:36.468Z,10.18
2022-08-18T02:52:40.483Z,9.82
2022-08-18T02:53:49.467Z,10.27
2022-08-18T02:54:52.851Z,9.30
2022-08-18T02:55:55.729Z,9.60
2022-08-18T02:56:58.282Z,9.80
2022-08-18T02:58:03.449Z,9.75
2022-08-18T02:59:07.990Z,9.13
2022-08-18T03:00:13.128Z,9.38
2022-08-18T03:01:15.553Z,9.48
2022-08-18T03:02:17.641Z,8.93
2022-08-18T03:03:19.566Z,9.60
2022-08-18T03:04:29.703Z,9.15
2022-08-18T03:05:32.045Z,9.35
2022-08-18T03:06:37.353Z,8.75
2022-08-18T03:07:40.026Z,8.85
2022-08-18T03:08:43.147Z,9.60
2022-08-18T03:09:45.077Z,8.55
2022-08-18T03:10:52.566Z,10.00
2022-08-18T03:11:54.959Z,9.63
2022-08-18T03:12:56.926Z,9.90
2022-08-18T03:13:59.719Z,9.75
2022-08-18T03:15:02.273Z,9.70
2022-08-18T03:16:04.817Z,9.43
2022-08-18T03:17:08.661Z,9.63
2022-08-18T03:18:12.533Z,9.82
2022-08-18T03:19:16.429Z,9.60
2022-08-18T03:20:18.347Z,9.45
2022-08-18T03:21:35.870Z,9.73
2022-08-18T03:22:38.954Z,9.98
2022-08-18T03:23:41.999Z,9.88
2022-08-18T03:24:44.268Z,9.20
2022-08-18T03:25:49.284Z,9.82
2022-08-18T03:26:53.015Z,10.57
2022-08-18T03:27:54.904Z,9.68
2022-08-18T03:28:58.042Z,8.98
2022-08-18T03:30:00.557Z,8.77
2022-08-18T03:31:02.466Z,9.10
2022-08-18T03:32:07.545Z,8.82
2022-08-18T03:33:10.719Z,9.10
2022-08-18T03:34:13.240Z,9.10
2022-08-18T03:35:15.066Z,9.02
2022-08-18T03:36:21.934Z,9.75
2022-08-18T03:37:23.756Z,9.25
2022-08-18T03:38:25.681Z,9.80
2022-08-18T03:39:28.502Z,8.52
2022-08-18T03:40:30.753Z,10.30
2022-08-18T03:41:59.232Z,9.40
2022-08-18T03:42:55.390Z,9.15
2022-08-18T03:43:57.211Z,10.13
2022-08-18T03:44:59.034Z,10.15
2022-08-18T03:46:06.753Z,9.90
2022-08-18T03:47:10.341Z,9.55
2022-08-18T03:48:12.514Z,9.55
2022-08-18T03:49:14.550Z,10.57
2022-08-18T03:50:16.301Z,10.05
2022-08-18T03:51:22.218Z,9.80
2022-08-18T03:52:24.115Z,9.88
2022-08-18T03:53:26.076Z,9.65
2022-08-18T03:54:28.711Z,10.02
2022-08-18T03:55:30.694Z,9.63
2022-08-18T03:56:35.580Z,9.57
2022-08-18T03:57:44.064Z,10.02
2022-08-18T03:59:01.530Z,9.57
2022-08-18T04:00:04.871Z,9.88
2022-08-18T04:01:06.761Z,9.68
2022-08-18T04:02:08.656Z,9.50
2022-08-18T04:03:11.561Z,9.50
2022-08-18T04:04:17.307Z,9.65
2022-08-18T04:05:19.206Z,8.70
2022-08-18T04:06:30.193Z,9.30
2022-08-18T04:07:32.183Z,8.80
2022-08-18T04:08:34.165Z,9.50
2022-08-18T04:09:38.217Z,9.00
2022-08-18T04:10:40.531Z,9.38
2022-08-18T04:11:44.385Z,9.30
2022-08-18T04:12:46.377Z,8.13
2022-08-18T04:13:48.194Z,9.15
2022-08-18T04:14:50.679Z,8.93
2022-08-18T04:15:52.623Z,8.32
2022-08-18T04:16:54.379Z,8.65
2022-08-18T04:18:03.983Z,8.40
2022-08-18T04:19:07.221Z,9.10
2022-08-18T04:20:10.846Z,8.57
2022-08-18T04:21:14.062Z,8.63
2022-08-18T04:22:17.557Z,8.88
2022-08-18T04:23:21.440Z,9.43
2022-08-18T04:24:23.332Z,8.32
2022-08-18T04:25:30.744Z,8.30
2022-08-18T04:26:38.104Z,9.35
2022-08-18T04:27:42.905Z,10.23
2022-08-18T04:28:44.996Z,11.38
2022-08-18T04:29:48.086Z,10.50
2022-08-18T04:30:49.984Z,8.63
2022-08-18T04:31:52.549Z,8.50
2022-08-18T04:32:54.609Z,8.45
2022-08-18T04:33:58.610Z,8.52
2022-08-18T04:35:02.890Z,8.90
2022-08-18T04:36:20.727Z,8.63
2022-08-18T04:37:23.064Z,8.32
2022-08-18T04:38:25.002Z,8.52
2022-08-18T04:39:27.256Z,8.45
2022-08-18T04:40:29.987Z,8.13
2022-08-18T04:41:32.259Z,8.18
2022-08-18T04:42:34.162Z,8.32
2022-08-18T04:43:42.317Z,8.70
2022-08-18T04:44:44.225Z,7.47
2022-08-18T04:45:46.458Z,8.40
2022-08-18T04:46:54.413Z,7.45
2022-08-18T04:47:58.180Z,8.25
2022-08-18T04:49:00.416Z,8.35
2022-08-18T04:50:03.556Z,7.97
2022-08-18T04:51:11.713Z,8.27
2022-08-18T04:52:40.354Z,8.00
2022-08-18T04:53:47.815Z,8.30
2022-08-18T04:54:50.013Z,7.82
2022-08-18T04:55:54.662Z,7.18
2022-08-18T04:56:56.709Z,7.63
2022-08-18T04:57:59.633Z,8.00
2022-08-18T04:59:08.037Z,8.02
2022-08-18T05:00:13.883Z,8.43
2022-08-18T05:01:17.859Z,8.40
2022-08-18T05:02:21.528Z,7.15
2022-08-18T05:03:26.676Z,7.85
2022-08-18T05:04:29.458Z,8.20
2022-08-18T05:05:31.357Z,8.68
2022-08-18T05:06:33.450Z,8.43
2022-08-18T05:07:35.181Z,8.02
2022-08-18T05:08:37.118Z,8.15
2022-08-18T05:09:41.407Z,7.50
2022-08-18T05:10:43.680Z,7.82
2022-08-18T05:11:45.609Z,8.38
2022-08-18T05:12:48.450Z,8.07
2022-08-18T05:13:52.361Z,8.85
2022-08-18T05:14:57.275Z,8.15
2022-08-18T05:16:16.873Z,8.27
2022-08-18T05:17:21.516Z,8.18
2022-08-18T05:18:24.890Z,7.38
2022-08-18T05:19:31.452Z,7.97
2022-08-18T05:20:33.629Z,7.65
2022-08-18T05:21:37.235Z,8.02
2022-08-18T05:22:43.362Z,8.10
2022-08-18T05:23:47.929Z,7.93
2022-08-18T05:24:49.794Z,7.97
2022-08-18T05:25:57.953Z,7.93
2022-08-18T05:26:59.908Z,6.75
2022-08-18T05:28:01.768Z,8.68
2022-08-18T05:29:18.641Z,7.53
2022-08-18T05:30:21.575Z,8.52
2022-08-18T05:31:25.885Z,7.97
2022-08-18T05:32:48.292Z,8.27
2022-08-18T05:33:53.837Z,7.90
2022-08-18T05:34:57.478Z,8.07
2022-08-18T05:36:05.908Z,8.90
2022-08-18T05:37:27.893Z,7.97
2022-08-18T05:38:55.029Z,7.93
2022-08-18T05:40:01.417Z,7.95
2022-08-18T05:41:26.546Z,8.60
2022-08-18T05:42:35.321Z,8.77
2022-08-18T05:43:51.289Z,8.55
2022-08-18T05:44:55.958Z,8.82
2022-08-18T05:45:59.728Z,8.88
2022-08-18T05:47:07.116Z,8.27
2022-08-18T05:48:09.296Z,8.18
2022-08-18T05:49:12.976Z,8.65
2022-08-18T05:50:18.973Z,8.20
2022-08-18T05:51:29.521Z,8.38
2022-08-18T05:53:03.098Z,8.35
2022-08-18T05:54:26.933Z,7.95
2022-08-18T05:55:58.183Z,8.50
2022-08-18T05:57:10.335Z,8.15
2022-08-18T05:58:19.184Z,8.13
2022-08-18T05:59:28.890Z,8.52
2022-08-18T06:00:31.713Z,7.55
2022-08-18T06:01:42.680Z,7.18
2022-08-18T06:03:02.386Z,7.25
2022-08-18T06:04:29.985Z,7.03
2022-08-18T06:05:57.593Z,8.82
2022-08-18T06:07:05.164Z,8.02
2022-08-18T06:08:13.341Z,8.18
2022-08-18T06:09:40.153Z,7.57
2022-08-18T06:10:47.261Z,7.75
2022-08-18T06:11:50.084Z,7.95
2022-08-18T06:12:55.304Z,7.10
2022-08-18T06:13:59.456Z,8.20
2022-08-18T06:15:17.057Z,8.27
2022-08-18T06:16:44.531Z,7.80
2022-08-18T06:18:29.649Z,7.45
2022-08-18T06:19:43.608Z,8.07
2022-08-18T06:20:57.597Z,7.35
2022-08-18T06:22:07.848Z,8.23
2022-08-18T06:24:06.458Z,8.02
2022-08-18T06:25:21.621Z,8.00
2022-08-18T06:26:40.483Z,8.25
2022-08-18T06:27:58.836Z,9.00
2022-08-18T06:29:21.637Z,9.20
2022-08-18T06:30:33.523Z,9.30
2022-08-18T06:32:01.341Z,8.60
2022-08-18T06:33:14.396Z,9.02
2022-08-18T06:34:28.988Z,9.20
2022-08-18T06:35:50.490Z,10.07
2022-08-18T06:37:10.955Z,9.38
2022-08-18T06:38:36.888Z,8.57
2022-08-18T06:39:49.078Z,8.45
2022-08-18T06:41:40.993Z,8.25
2022-08-18T06:42:39.943Z,11.32
2022-08-18T06:44:04.558Z,9.73
2022-08-18T06:45:13.021Z,8.27
2022-08-18T06:46:28.340Z,8.40
2022-08-18T06:47:41.213Z,8.38
2022-08-18T06:48:56.712Z,9.10
2022-08-18T06:50:23.263Z,9.52
2022-08-18T06:51:28.406Z,10.98
2022-08-18T06:52:38.446Z,9.48
2022-08-18T06:54:21.461Z,9.68
2022-08-18T06:55:42.352Z,9.32
2022-08-18T06:56:44.517Z,9.00
2022-08-18T06:58:08.789Z,8.27
2022-08-18T06:59:30.294Z,8.35
2022-08-18T07:00:34.962Z,8.38
2022-08-18T07:01:38.863Z,8.85
2022-08-18T07:02:55.101Z,8.93
2022-08-18T07:03:57.007Z,9.07
2022-08-18T07:05:03.281Z,8.07
2022-08-18T07:06:21.233Z,8.88
2022-08-18T07:07:41.390Z,7.65
2022-08-18T07:08:44.988Z,7.60
2022-08-18T07:09:49.140Z,8.15
2022-08-18T07:10:52.566Z,7.68
2022-08-18T07:12:09.111Z,7.25
2022-08-18T07:13:13.340Z,7.53
2022-08-18T07:14:22.234Z,7.65
2022-08-18T07:15:25.186Z,7.28
2022-08-18T07:16:56.519Z,7.18
2022-08-18T07:18:05.920Z,7.47
2022-08-18T07:19:08.477Z,7.15
2022-08-18T07:20:47.452Z,7.10
2022-08-18T07:22:09.926Z,7.07
2022-08-18T07:23:27.689Z,6.82
2022-08-18T07:24:46.051Z,7.10
2022-08-18T07:25:51.100Z,7.78
2022-08-18T07:27:03.485Z,7.30
2022-08-18T07:28:06.012Z,7.50
2022-08-18T07:29:15.820Z,7.30
2022-08-18T07:30:19.573Z,7.30
2022-08-18T07:31:50.231Z,7.05
2022-08-18T07:32:59.666Z,7.13
2022-08-18T07:34:15.769Z,7.55
2022-08-18T07:35:25.174Z,6.57
2022-08-18T07:36:47.724Z,7.10
2022-08-18T07:37:58.150Z,7.07
2022-08-18T07:39:14.625Z,7.28
2022-08-18T07:40:35.459Z,6.90
2022-08-18T07:41:59.843Z,7.70
2022-08-18T07:43:11.138Z,7.18
2022-08-18T07:44:24.044Z,6.82
2022-08-18T07:45:30.289Z,6.95
2022-08-18T07:46:45.056Z,6.95
2022-08-18T07:48:15.679Z,7.00
2022-08-18T07:49:26.503Z,6.82
2022-08-18T07:50:58.755Z,7.35
2022-08-18T07:52:35.839Z,7.03
2022-08-18T07:53:37.435Z,7.35
2022-08-18T07:54:49.816Z,7.20
2022-08-18T07:55:58.382Z,7.13
2022-08-18T07:57:08.085Z,7.38
2022-08-18T07:58:26.650Z,7.30
2022-08-18T07:59:43.228Z,7.07
2022-08-18T08:00:59.240Z,7.50
2022-08-18T08:02:29.781Z,7.72
2022-08-18T08:03:58.472Z,7.18
2022-08-18T08:05:18.682Z,7.43
2022-08-18T08:06:45.045Z,7.50
2022-08-18T08:08:25.918Z,7.57
2022-08-18T08:10:01.529Z,6.90
2022-08-18T08:11:24.296Z,7.63
2022-08-18T08:13:06.047Z,7.70
2022-08-18T08:14:38.706Z,7.47
2022-08-18T08:15:43.432Z,7.10
2022-08-18T08:17:04.278Z,7.93
2022-08-18T08:18:25.009Z,7.28
2022-08-18T08:20:05.968Z,7.10
2022-08-18T08:21:16.399Z,6.65
2022-08-18T08:22:29.597Z,6.75
2022-08-18T08:23:48.217Z,7.28
2022-08-18T08:25:17.475Z,6.70
2022-08-18T08:26:56.392Z,6.80
2022-08-18T08:28:16.935Z,6.32
2022-08-18T08:29:33.394Z,6.57
2022-08-18T08:31:33.223Z,6.35
2022-08-18T08:32:34.409Z,7.22
2022-08-18T08:33:52.079Z,6.57
2022-08-18T08:35:49.138Z,7.05
2022-08-18T08:36:42.586Z,6.40
2022-08-18T08:37:58.267Z,6.85
2022-08-18T08:39:22.986Z,7.43
2022-08-18T08:40:38.457Z,6.85
2022-08-18T08:41:53.233Z,7.10
2022-08-18T08:43:08.904Z,6.82
2022-08-18T08:45:38.101Z,6.78
2022-08-18T08:47:03.183Z,7.38
2022-08-18T08:48:11.177Z,7.70
2022-08-18T08:49:27.583Z,7.78
2022-08-18T08:50:45.292Z,7.15
2022-08-18T08:51:58.113Z,6.22
2022-08-18T08:53:12.619Z,6.45
2022-08-18T08:54:23.481Z,7.32
2022-08-18T08:55:30.534Z,6.55
2022-08-18T08:56:39.513Z,5.75
2022-08-18T08:57:54.058Z,6.70
2022-08-18T08:59:09.801Z,6.93
2022-08-18T09:00:15.331Z,6.53
2022-08-18T09:01:41.885Z,7.07
2022-08-18T09:03:39.416Z,6.57
2022-08-18T09:05:06.828Z,6.65
2022-08-18T09:06:41.860Z,7.05
2022-08-18T09:08:14.228Z,6.82
2022-08-18T09:10:07.970Z,7.75
2022-08-18T09:11:12.443Z,6.93
2022-08-18T09:12:44.939Z,6.93
2022-08-18T09:14:24.084Z,6.90
2022-08-18T09:15:54.680Z,7.13
2022-08-18T09:17:34.569Z,6.60
2022-08-18T09:18:52.208Z,6.75
2022-08-18T09:20:12.414Z,7.45
2022-08-18T09:21:37.971Z,6.15
2022-08-18T09:23:00.195Z,6.70
2022-08-18T09:24:29.266Z,7.20
2022-08-18T09:25:40.051Z,6.80
2022-08-18T09:26:49.722Z,6.28
2022-08-18T09:28:12.463Z,6.80
2022-08-18T09:29:26.261Z,6.72
2022-08-18T09:31:09.306Z,6.22
2022-08-18T09:32:20.275Z,6.50
2022-08-18T09:33:34.853Z,6.35
2022-08-18T09:35:05.394Z,6.28
2022-08-18T09:36:19.909Z,6.43
2022-08-18T09:37:28.050Z,6.72
2022-08-18T09:38:50.524Z,6.20
2022-08-18T09:40:51.360Z,6.55
2022-08-18T09:41:53.675Z,5.90
2022-08-18T09:43:20.294Z,6.55
2022-08-18T09:44:46.773Z,6.28
2022-08-18T09:45:57.793Z,7.03
2022-08-18T09:48:28.318Z,6.22
2022-08-18T09:49:30.564Z,6.40
2022-08-18T09:50:50.917Z,6.60
2022-08-18T09:51:54.280Z,6.90
2022-08-18T09:53:19.647Z,6.20
2022-08-18T09:54:32.780Z,6.43
2022-08-18T09:55:42.635Z,6.13
2022-08-18T09:57:07.679Z,6.20
2022-08-18T09:58:22.949Z,6.30
2022-08-18T09:59:34.533Z,6.40
2022-08-18T10:00:37.009Z,6.75
2022-08-18T10:01:42.249Z,6.75
2022-08-18T10:03:02.335Z,6.97
2022-08-18T10:04:32.789Z,6.43
2022-08-18T10:05:35.519Z,6.72
2022-08-18T10:06:38.888Z,6.47
2022-08-18T10:08:07.476Z,6.35
2022-08-18T10:09:44.064Z,6.57
2022-08-18T10:11:08.600Z,6.47
2022-08-18T10:14:12.368Z,6.35
2022-08-18T10:15:27.013Z,6.57
2022-08-18T10:17:24.354Z,6.93
2022-08-18T10:18:56.806Z,6.50
2022-08-18T10:20:09.349Z,6.70
2022-08-18T10:21:53.725Z,6.55
2022-08-18T10:22:57.456Z,6.85
2022-08-18T10:24:32.043Z,6.60
2022-08-18T10:25:48.804Z,7.50
2022-08-18T10:26:54.096Z,6.38
2022-08-18T10:27:57.370Z,6.47
2022-08-18T10:29:04.162Z,6.97
2022-08-18T10:30:34.565Z,6.43
2022-08-18T10:31:55.970Z,5.97
2022-08-18T10:33:07.445Z,6.88
2022-08-18T10:34:51.514Z,6.95
2022-08-18T10:36:03.121Z,6.55
2022-08-18T10:37:13.198Z,6.40
2022-08-18T10:38:25.482Z,5.55
2022-08-18T10:39:41.225Z,6.30
2022-08-18T10:40:52.878Z,6.25
2022-08-18T10:42:11.110Z,6.80
2022-08-18T10:43:45.692Z,6.75
2022-08-18T10:45:36.682Z,8.75
2022-08-18T10:48:11.937Z,6.22
2022-08-18T10:49:26.506Z,5.70
2022-08-18T10:50:32.804Z,5.45
2022-08-18T10:52:01.363Z,5.55
2022-08-18T10:53:40.242Z,5.50
2022-08-18T10:55:10.346Z,6.28
2022-08-18T10:56:33.516Z,6.60
2022-08-18T10:57:38.228Z,6.53
2022-08-18T10:58:42.589Z,5.95
2022-08-18T11:00:01.560Z,5.63
2022-08-18T11:01:30.896Z,5.90
2022-08-18T11:03:29.891Z,6.18
2022-08-18T11:04:41.556Z,6.30
2022-08-18T11:05:44.660Z,6.95
2022-08-18T11:06:51.140Z,6.45
2022-08-18T11:08:02.059Z,6.93
2022-08-18T11:09:04.562Z,7.20
2022-08-18T11:10:32.216Z,6.38
2022-08-18T11:11:41.075Z,7.35
2022-08-18T11:13:24.346Z,6.75
2022-08-18T11:14:42.718Z,6.85
2022-08-18T11:16:03.389Z,7.28
2022-08-18T11:17:36.167Z,6.22
2022-08-18T11:18:49.810Z,6.50
2022-08-18T11:19:55.723Z,6.30
2022-08-18T11:21:30.807Z,6.60
2022-08-18T11:22:35.654Z,6.53
2022-08-18T11:23:37.685Z,7.35
2022-08-18T11:24:44.910Z,6.47
2022-08-18T11:25:48.559Z,6.47
2022-08-18T11:26:59.900Z,7.18
2022-08-18T11:28:02.893Z,6.95
2022-08-18T11:29:24.014Z,6.53
2022-08-18T11:30:37.039Z,7.45
2022-08-18T11:31:39.185Z,7.30
2022-08-18T11:32:55.163Z,7.22
2022-08-18T11:33:57.415Z,7.43
2022-08-18T11:34:59.969Z,6.80
2022-08-18T11:36:02.112Z,6.93
2022-08-18T11:37:19.518Z,7.18
2022-08-18T11:38:24.541Z,7.68
2022-08-18T11:39:38.151Z,7.65
2022-08-18T11:42:15.910Z,7.32
2022-08-18T11:43:41.539Z,8.13
2022-08-18T11:44:45.430Z,7.20
2022-08-18T11:45:58.450Z,7.40
2022-08-18T11:47:23.511Z,7.50
2022-08-18T11:48:37.831Z,7.13
2022-08-18T11:50:13.884Z,7.75
2022-08-18T11:52:54.577Z,7.55
2022-08-18T11:54:21.964Z,7.38
2022-08-18T11:55:33.214Z,7.45
2022-08-18T11:56:38.471Z,7.93
2022-08-18T11:57:59.610Z,7.38
2022-08-18T11:59:53.247Z,7.70
2022-08-18T12:00:53.680Z,7.35
2022-08-18T12:01:56.997Z,7.70
2022-08-18T12:03:09.919Z,7.72
2022-08-18T12:05:56.650Z,7.68
2022-08-18T12:07:04.427Z,7.75
2022-08-18T12:08:50.651Z,7.53
2022-08-18T12:10:17.386Z,7.78
2022-08-18T12:11:32.748Z,7.68
2022-08-18T12:12:44.385Z,8.40
2022-08-18T12:13:56.759Z,7.78
2022-08-18T12:15:10.468Z,7.45
2022-08-18T12:16:40.195Z,8.27
2022-08-18T12:17:52.404Z,7.82
2022-08-18T12:18:55.144Z,7.78
2022-08-18T12:19:58.108Z,7.60
2022-08-18T12:21:02.857Z,7.18
2022-08-18T12:22:17.895Z,7.57
2022-08-18T12:23:19.834Z,7.13
2022-08-18T12:24:36.711Z,7.00
2022-08-18T12:25:41.210Z,7.03
2022-08-18T12:26:47.589Z,6.78
2022-08-18T12:27:49.623Z,7.03
2022-08-18T12:28:52.563Z,7.13
2022-08-18T12:29:57.654Z,6.85
2022-08-18T12:30:59.958Z,7.65
2022-08-18T12:32:01.847Z,6.60
2022-08-18T12:33:10.293Z,6.85
2022-08-18T12:34:14.248Z,6.45
2022-08-18T12:35:16.886Z,6.03
2022-08-18T12:36:24.738Z,6.47
2022-08-18T12:37:58.143Z,6.53
2022-08-18T12:38:56.128Z,6.22
2022-08-18T12:39:59.756Z,6.10
2022-08-18T12:41:01.842Z,5.97
2022-08-18T12:42:05.875Z,6.18
2022-08-18T12:43:08.441Z,6.28
2022-08-18T12:44:13.351Z,6.00
2022-08-18T12:45:15.918Z,5.90
2022-08-18T12:46:18.295Z,6.07
2022-08-18T12:47:24.117Z,6.45
2022-08-18T12:48:28.261Z,6.55
2022-08-18T12:49:31.413Z,7.00
2022-08-18T12:50:39.200Z,7.28
2022-08-18T12:51:54.787Z,7.38
2022-08-18T12:52:57.665Z,7.20
2022-08-18T12:54:00.272Z,6.70
2022-08-18T12:55:03.169Z,7.43
2022-08-18T12:56:08.719Z,7.47
2022-08-18T12:57:27.702Z,7.40
2022-08-18T12:58:42.988Z,7.65
2022-08-18T12:59:45.949Z,8.05
2022-08-18T13:00:48.743Z,7.72
2022-08-18T13:01:58.558Z,7.60
2022-08-18T13:03:01.702Z,7.47
2022-08-18T13:04:12.575Z,6.95
2022-08-18T13:05:30.046Z,6.43
2022-08-18T13:06:35.933Z,6.85
2022-08-18T13:07:37.881Z,6.70
2022-08-18T13:08:50.310Z,6.93
2022-08-18T13:09:54.419Z,7.00
2022-08-18T13:10:58.180Z,6.68
2022-08-18T13:12:00.399Z,6.28
2022-08-18T13:13:02.279Z,6.70
2022-08-18T13:14:08.922Z,6.72
2022-08-18T13:15:11.176Z,7.00
2022-08-18T13:16:16.390Z,6.47
2022-08-18T13:17:34.328Z,6.75
2022-08-18T13:18:37.787Z,6.13
2022-08-18T13:19:39.841Z,6.20
2022-08-18T13:20:45.060Z,5.97
2022-08-18T13:21:47.550Z,5.80
2022-08-18T13:22:51.673Z,6.55
2022-08-18T13:23:55.710Z,5.30
2022-08-18T13:24:57.599Z,6.10
2022-08-18T13:26:03.217Z,6.28
2022-08-18T13:27:18.471Z,6.43
2022-08-18T13:28:25.677Z,6.15
2022-08-18T13:29:32.565Z,6.43
2022-08-18T13:30:35.692Z,7.10
2022-08-18T13:31:38.377Z,6.43
2022-08-18T13:32:47.257Z,6.38
2022-08-18T13:34:03.670Z,6.93
2022-08-18T13:35:13.166Z,6.78
2022-08-18T13:36:15.592Z,6.88
2022-08-18T13:37:18.553Z,6.93
2022-08-18T13:38:27.273Z,7.25
2022-08-18T13:39:34.305Z,6.90
2022-08-18T13:40:38.258Z,7.05
2022-08-18T13:41:52.778Z,7.35
2022-08-18T13:42:54.759Z,7.35
2022-08-18T13:43:59.046Z,7.35
2022-08-18T13:45:22.762Z,7.70
2022-08-18T13:46:29.778Z,7.70
2022-08-18T13:47:38.242Z,7.07
2022-08-18T13:48:41.560Z,7.15
2022-08-18T13:49:43.776Z,6.88
2022-08-18T13:51:03.232Z,6.82
2022-08-18T13:52:12.278Z,6.85
2022-08-18T13:53:31.476Z,6.40
2022-08-18T13:54:36.191Z,5.95
2022-08-18T13:55:41.745Z,6.35
2022-08-18T13:56:52.156Z,6.75
2022-08-18T13:57:54.788Z,6.05
2022-08-18T13:58:56.933Z,6.95
2022-08-18T13:59:58.770Z,6.00
2022-08-18T14:01:37.267Z,5.93
2022-08-18T14:02:28.072Z,6.53
2022-08-18T14:03:46.674Z,5.55
2022-08-18T14:04:49.569Z,5.57
2022-08-18T14:06:01.087Z,5.95
2022-08-18T14:07:10.023Z,5.35
2022-08-18T14:08:19.573Z,6.55
2022-08-18T14:09:27.729Z,6.40
2022-08-18T14:10:38.690Z,5.82
2022-08-18T14:11:41.829Z,6.13
2022-08-18T14:12:44.854Z,5.93
2022-08-18T14:13:49.089Z,6.30
2022-08-18T14:14:55.510Z,5.85
2022-08-18T14:15:59.437Z,6.70
2022-08-18T14:17:01.703Z,6.05
2022-08-18T14:18:06.031Z,6.60
2022-08-18T14:19:28.438Z,6.45
2022-08-18T14:20:49.453Z,6.15
2022-08-18T14:22:13.375Z,6.25
2022-08-18T14:23:34.614Z,7.03
2022-08-18T14:24:59.541Z,6.57
2022-08-18T14:26:20.893Z,6.60
2022-08-18T14:27:34.699Z,5.68
2022-08-18T14:28:38.444Z,6.05
2022-08-18T14:29:47.467Z,6.03
2022-08-18T14:30:54.151Z,5.90
2022-08-18T14:31:57.105Z,5.88
2022-08-18T14:32:59.938Z,6.38
2022-08-18T14:34:04.077Z,6.28
2022-08-18T14:36:04.681Z,6.00
2022-08-18T14:36:30.722Z,6.05
2022-08-18T14:37:33.938Z,5.88
2022-08-18T14:38:37.025Z,6.25
2022-08-18T14:39:40.644Z,6.43
2022-08-18T14:40:51.194Z,6.03
2022-08-18T14:41:55.996Z,5.72
2022-08-18T14:42:58.750Z,5.97
2022-08-18T14:44:12.885Z,6.30
2022-08-18T14:45:27.801Z,5.97
2022-08-18T14:46:36.311Z,6.10
2022-08-18T14:47:42.973Z,6.00
2022-08-18T14:48:45.521Z,5.90
2022-08-18T14:49:49.618Z,6.45
2022-08-18T14:50:54.607Z,6.47
2022-08-18T14:51:58.059Z,5.93
2022-08-18T14:52:59.960Z,6.43
2022-08-18T14:54:02.949Z,6.30
2022-08-18T14:55:05.278Z,6.40
2022-08-18T14:56:11.776Z,5.78
2022-08-18T14:57:13.912Z,6.38
2022-08-18T14:58:16.662Z,6.97
2022-08-18T14:59:20.692Z,6.35
2022-08-18T15:00:22.899Z,6.13
2022-08-18T15:01:26.555Z,6.63
2022-08-18T15:02:28.724Z,5.70
2022-08-18T15:03:31.885Z,5.97
2022-08-18T15:04:38.497Z,6.35
2022-08-18T15:05:56.310Z,6.40
2022-08-18T15:06:58.173Z,5.72
2022-08-18T15:08:04.383Z,6.32
2022-08-18T15:09:06.717Z,5.75
2022-08-18T15:10:14.405Z,5.95
2022-08-18T15:11:17.915Z,6.25
2022-08-18T15:12:25.697Z,6.00
2022-08-18T15:13:27.738Z,6.38
2022-08-18T15:14:33.655Z,5.80
2022-08-18T15:15:42.287Z,6.35
2022-08-18T15:16:53.205Z,6.18
2022-08-18T15:17:55.139Z,5.90
2022-08-18T15:19:00.717Z,5.57
2022-08-18T15:20:09.730Z,6.00
2022-08-18T15:21:38.766Z,6.18
2022-08-18T15:23:01.684Z,6.32
2022-08-18T15:24:25.761Z,6.50
2022-08-18T15:25:42.081Z,6.57
2022-08-18T15:26:44.097Z,7.18
2022-08-18T15:27:46.286Z,7.22
2022-08-18T15:28:54.532Z,9.05
2022-08-18T15:30:06.745Z,11.48
2022-08-18T15:31:49.595Z,10.73
2022-08-18T15:32:33.138Z,8.70
2022-08-18T15:33:36.180Z,7.15
2022-08-18T15:34:47.076Z,7.18
2022-08-18T15:35:53.758Z,6.35
2022-08-18T15:36:57.236Z,7.18
2022-08-18T15:38:15.101Z,6.88
2022-08-18T15:39:18.559Z,6.28
2022-08-18T15:40:30.921Z,6.57
2022-08-18T15:43:01.557Z,7.20
2022-08-18T15:44:06.692Z,7.20
2022-08-18T15:45:12.065Z,6.70
2022-08-18T15:46:16.810Z,6.28
2022-08-18T15:47:20.715Z,6.05
2022-08-18T15:48:23.951Z,6.30
2022-08-18T15:49:25.844Z,6.47